sensor_id;sensor_type;location;lat;lon;timestamp;pressure;altitude;pressure_sealevel;temperature;humidity
6345;BME280;3205;42.666;23.264;2022-12-07T00:01:41;94312.91;;;6.43;100.00
6345;BME280;3205;42.666;23.264;2022-12-07T00:04:10;94312.44;;;6.49;100.00
6345;BME280;3205;42.666;23.264;2022-12-07T00:06:39;94302.84;;;6.45;100.00
6345;BME280;3205;42.666;23.264;2022-12-07T00:09:11;94298.56;;;6.40;100.00
6345;BME280;3205;42.666;23.264;2022-12-07T00:11:39;94297.13;;;6.34;100.00
6345;BME280;3205;42.666;23.264;2022-12-07T00:14:09;94302.69;;;6.33;100.00
6345;BME280;3205;42.666;23.264;2022-12-07T00:16:38;94295.59;;;6.25;100.00
6345;BME280;3205;42.666;23.264;2022-12-07T00:19:05;94300.22;;;6.36;100.00
6345;BME280;3205;42.666;23.264;2022-12-07T00:21:34;94300.22;;;6.28;100.00
6345;BME280;3205;42.666;23.264;2022-12-07T00:24:02;94303.94;;;6.27;100.00
6345;BME280;3205;42.666;23.264;2022-12-07T00:26:31;94300.69;;;6.30;100.00
6345;BME280;3205;42.666;23.264;2022-12-07T00:29:02;94303.50;;;6.33;100.00
6345;BME280;3205;42.666;23.264;2022-12-07T00:31:32;94303.00;;;6.31;100.00
6345;BME280;3205;42.666;23.264;2022-12-07T00:34:00;94304.09;;;6.30;100.00
6345;BME280;3205;42.666;23.264;2022-12-07T00:36:28;94300.22;;;6.36;100.00
6345;BME280;3205;42.666;23.264;2022-12-07T00:38:57;94299.00;;;6.42;100.00
6345;BME280;3205;42.666;23.264;2022-12-07T00:41:26;94307.94;;;6.24;100.00
6345;BME280;3205;42.666;23.264;2022-12-07T00:43:53;94299.91;;;6.12;100.00
6345;BME280;3205;42.666;23.264;2022-12-07T00:46:22;94298.84;;;6.22;100.00
6345;BME280;3205;42.666;23.264;2022-12-07T00:48:50;94302.38;;;6.17;100.00
6345;BME280;3205;42.666;23.264;2022-12-07T00:51:20;94292.63;;;6.18;100.00
6345;BME280;3205;42.666;23.264;2022-12-07T00:53:47;94289.09;;;6.14;100.00
6345;BME280;3205;42.666;23.264;2022-12-07T00:56:17;94298.69;;;6.18;100.00
6345;BME280;3205;42.666;23.264;2022-12-07T00:58:44;94299.00;;;6.17;100.00
6345;BME280;3205;42.666;23.264;2022-12-07T01:01:15;94297.13;;;6.17;100.00
6345;BME280;3205;42.666;23.264;2022-12-07T01:03:43;94301.63;;;6.25;100.00
6345;BME280;3205;42.666;23.264;2022-12-07T01:06:14;94292.84;;;6.30;100.00
6345;BME280;3205;42.666;23.264;2022-12-07T01:08:41;94288.81;;;6.24;100.00
6345;BME280;3205;42.666;23.264;2022-12-07T01:11:12;94285.13;;;6.33;100.00
6345;BME280;3205;42.666;23.264;2022-12-07T01:13:40;94285.72;;;6.30;100.00
6345;BME280;3205;42.666;23.264;2022-12-07T01:16:09;94277.53;;;6.32;100.00
6345;BME280;3205;42.666;23.264;2022-12-07T01:18:37;94278.63;;;6.39;100.00
6345;BME280;3205;42.666;23.264;2022-12-07T01:21:06;94278.63;;;6.39;100.00
6345;BME280;3205;42.666;23.264;2022-12-07T01:23:34;94268.56;;;6.33;100.00
6345;BME280;3205;42.666;23.264;2022-12-07T01:26:05;94269.22;;;6.30;100.00
6345;BME280;3205;42.666;23.264;2022-12-07T01:28:32;94264.72;;;6.39;100.00
6345;BME280;3205;42.666;23.264;2022-12-07T01:31:01;94261.19;;;6.26;100.00
6345;BME280;3205;42.666;23.264;2022-12-07T01:33:29;94263.81;;;6.26;100.00
6345;BME280;3205;42.666;23.264;2022-12-07T01:36:01;94270.44;;;6.24;100.00
6345;BME280;3205;42.666;23.264;2022-12-07T01:38:30;94270.56;;;6.19;100.00
6345;BME280;3205;42.666;23.264;2022-12-07T01:40:57;94276.88;;;6.09;100.00
6345;BME280;3205;42.666;23.264;2022-12-07T01:43:26;94268.88;;;6.14;100.00
6345;BME280;3205;42.666;23.264;2022-12-07T01:45:55;94265.00;;;6.03;100.00
6345;BME280;3205;42.666;23.264;2022-12-07T01:48:26;94266.25;;;6.06;100.00
6345;BME280;3205;42.666;23.264;2022-12-07T01:50:56;94265.16;;;6.07;100.00
6345;BME280;3205;42.666;23.264;2022-12-07T01:53:32;94270.41;;;6.15;100.00
6345;BME280;3205;42.666;23.264;2022-12-07T01:56:02;94265.78;;;6.12;100.00
6345;BME280;3205;42.666;23.264;2022-12-07T01:58:29;94260.72;;;6.16;100.00
6345;BME280;3205;42.666;23.264;2022-12-07T02:00:56;94248.34;;;6.16;100.00
6345;BME280;3205;42.666;23.264;2022-12-07T02:03:27;94245.28;;;6.23;100.00
6345;BME280;3205;42.666;23.264;2022-12-07T02:05:57;94247.44;;;6.12;100.00
6345;BME280;3205;42.666;23.264;2022-12-07T02:08:25;94246.03;;;6.15;100.00
6345;BME280;3205;42.666;23.264;2022-12-07T02:10:54;94248.97;;;6.22;100.00
6345;BME280;3205;42.666;23.264;2022-12-07T02:13:23;94252.19;;;6.19;100.00
6345;BME280;3205;42.666;23.264;2022-12-07T02:18:51;94248.34;;;6.25;100.00
6345;BME280;3205;42.666;23.264;2022-12-07T02:21:27;94244.78;;;6.29;100.00
6345;BME280;3205;42.666;23.264;2022-12-07T02:24:19;94241.25;;;6.42;100.00
6345;BME280;3205;42.666;23.264;2022-12-07T02:27:02;94243.41;;;6.32;100.00
6345;BME280;3205;42.666;23.264;2022-12-07T02:29:39;94237.06;;;6.33;100.00
6345;BME280;3205;42.666;23.264;2022-12-07T02:32:11;94247.59;;;6.24;100.00
6345;BME280;3205;42.666;23.264;2022-12-07T02:34:46;94250.38;;;6.19;100.00
6345;BME280;3205;42.666;23.264;2022-12-07T02:37:21;94248.66;;;6.15;100.00
6345;BME280;3205;42.666;23.264;2022-12-07T02:39:55;94246.47;;;6.08;100.00
6345;BME280;3205;42.666;23.264;2022-12-07T02:42:28;94252.34;;;6.05;100.00
6345;BME280;3205;42.666;23.264;2022-12-07T02:45:01;94246.47;;;6.00;100.00
6345;BME280;3205;42.666;23.264;2022-12-07T02:47:29;94253.53;;;5.83;100.00
6345;BME280;3205;42.666;23.264;2022-12-07T02:49:58;94241.91;;;5.67;100.00
6345;BME280;3205;42.666;23.264;2022-12-07T02:52:25;94231.81;;;5.90;100.00
6345;BME280;3205;42.666;23.264;2022-12-07T02:54:53;94228.72;;;5.88;100.00
6345;BME280;3205;42.666;23.264;2022-12-07T02:57:32;94222.72;;;6.05;100.00
6345;BME280;3205;42.666;23.264;2022-12-07T03:00:08;94217.94;;;5.98;100.00
6345;BME280;3205;42.666;23.264;2022-12-07T03:02:41;94218.69;;;5.90;100.00
6345;BME280;3205;42.666;23.264;2022-12-07T03:08:02;94214.00;;;5.71;100.00
6345;BME280;3205;42.666;23.264;2022-12-07T03:10:36;94212.13;;;5.63;100.00
6345;BME280;3205;42.666;23.264;2022-12-07T03:13:22;94213.03;;;5.50;100.00
6345;BME280;3205;42.666;23.264;2022-12-07T03:15:55;94214.41;;;5.47;100.00
6345;BME280;3205;42.666;23.264;2022-12-07T03:18:25;94214.22;;;5.35;100.00
6345;BME280;3205;42.666;23.264;2022-12-07T03:20:57;94219.16;;;5.28;100.00
6345;BME280;3205;42.666;23.264;2022-12-07T03:23:26;94219.88;;;5.20;100.00
6345;BME280;3205;42.666;23.264;2022-12-07T03:25:56;94215.72;;;5.28;100.00
6345;BME280;3205;42.666;23.264;2022-12-07T03:28:29;94222.66;;;5.24;100.00
6345;BME280;3205;42.666;23.264;2022-12-07T03:31:02;94217.59;;;5.27;100.00
6345;BME280;3205;42.666;23.264;2022-12-07T03:33:35;94218.31;;;5.19;100.00
6345;BME280;3205;42.666;23.264;2022-12-07T03:36:06;94219.75;;;5.25;100.00
6345;BME280;3205;42.666;23.264;2022-12-07T03:38:38;94213.91;;;5.37;100.00
6345;BME280;3205;42.666;23.264;2022-12-07T03:41:09;94218.84;;;5.38;100.00
6345;BME280;3205;42.666;23.264;2022-12-07T03:43:39;94212.84;;;5.38;100.00
6345;BME280;3205;42.666;23.264;2022-12-07T03:46:13;94212.53;;;5.39;100.00
6345;BME280;3205;42.666;23.264;2022-12-07T03:48:49;94216.41;;;5.42;100.00
6345;BME280;3205;42.666;23.264;2022-12-07T03:51:24;94217.19;;;5.42;100.00
6345;BME280;3205;42.666;23.264;2022-12-07T03:53:56;94210.56;;;5.45;100.00
6345;BME280;3205;42.666;23.264;2022-12-07T03:56:26;94214.44;;;5.56;100.00
6345;BME280;3205;42.666;23.264;2022-12-07T03:58:54;94212.88;;;5.46;100.00
6345;BME280;3205;42.666;23.264;2022-12-07T04:01:24;94205.75;;;5.47;100.00
6345;BME280;3205;42.666;23.264;2022-12-07T04:03:53;94204.09;;;5.51;100.00
6345;BME280;3205;42.666;23.264;2022-12-07T04:06:19;94204.69;;;5.48;100.00
6345;BME280;3205;42.666;23.264;2022-12-07T04:08:46;94203.78;;;5.44;100.00
6345;BME280;3205;42.666;23.264;2022-12-07T04:11:13;94199.75;;;5.46;100.00
6345;BME280;3205;42.666;23.264;2022-12-07T04:13:40;94203.13;;;5.47;100.00
6345;BME280;3205;42.666;23.264;2022-12-07T04:16:26;94208.22;;;5.43;100.00
6345;BME280;3205;42.666;23.264;2022-12-07T04:18:52;94199.59;;;5.34;100.00
6345;BME280;3205;42.666;23.264;2022-12-07T04:21:19;94198.19;;;5.28;100.00
6345;BME280;3205;42.666;23.264;2022-12-07T04:23:46;94209.41;;;5.29;100.00
6345;BME280;3205;42.666;23.264;2022-12-07T04:26:13;94206.47;;;5.22;100.00
6345;BME280;3205;42.666;23.264;2022-12-07T04:28:41;94216.94;;;5.22;100.00
6345;BME280;3205;42.666;23.264;2022-12-07T04:31:07;94212.63;;;5.17;100.00
6345;BME280;3205;42.666;23.264;2022-12-07T04:33:36;94212.78;;;5.21;100.00
6345;BME280;3205;42.666;23.264;2022-12-07T04:36:03;94198.75;;;5.17;100.00
6345;BME280;3205;42.666;23.264;2022-12-07T04:38:31;94207.50;;;5.13;100.00
6345;BME280;3205;42.666;23.264;2022-12-07T04:40:57;94205.63;;;5.05;100.00
6345;BME280;3205;42.666;23.264;2022-12-07T04:43:24;94209.97;;;5.09;100.00
6345;BME280;3205;42.666;23.264;2022-12-07T04:45:52;94213.41;;;5.18;100.00
6345;BME280;3205;42.666;23.264;2022-12-07T04:48:19;94212.94;;;5.24;100.00
6345;BME280;3205;42.666;23.264;2022-12-07T04:50:49;94215.91;;;5.40;100.00
6345;BME280;3205;42.666;23.264;2022-12-07T04:53:16;94218.09;;;5.38;100.00
6345;BME280;3205;42.666;23.264;2022-12-07T04:55:43;94219.31;;;5.40;100.00
6345;BME280;3205;42.666;23.264;2022-12-07T04:58:10;94209.78;;;5.44;100.00
6345;BME280;3205;42.666;23.264;2022-12-07T05:00:37;94208.53;;;5.50;100.00
6345;BME280;3205;42.666;23.264;2022-12-07T05:03:04;94211.66;;;5.61;100.00
6345;BME280;3205;42.666;23.264;2022-12-07T05:05:31;94218.44;;;5.53;100.00
6345;BME280;3205;42.666;23.264;2022-12-07T05:07:59;94212.13;;;5.63;100.00
6345;BME280;3205;42.666;23.264;2022-12-07T05:10:26;94223.22;;;5.60;100.00
6345;BME280;3205;42.666;23.264;2022-12-07T05:12:53;94215.50;;;5.63;100.00
6345;BME280;3205;42.666;23.264;2022-12-07T05:15:20;94217.22;;;5.59;100.00
6345;BME280;3205;42.666;23.264;2022-12-07T05:17:46;94218.28;;;5.58;100.00
6345;BME280;3205;42.666;23.264;2022-12-07T05:20:13;94221.88;;;5.62;100.00
6345;BME280;3205;42.666;23.264;2022-12-07T05:22:40;94221.88;;;5.62;100.00
6345;BME280;3205;42.666;23.264;2022-12-07T05:25:08;94224.34;;;5.67;100.00
6345;BME280;3205;42.666;23.264;2022-12-07T05:27:36;94217.69;;;5.61;100.00
6345;BME280;3205;42.666;23.264;2022-12-07T05:30:03;94214.91;;;5.58;100.00
6345;BME280;3205;42.666;23.264;2022-12-07T05:32:30;94209.78;;;5.53;100.00
6345;BME280;3205;42.666;23.264;2022-12-07T05:34:57;94200.41;;;5.52;100.00
6345;BME280;3205;42.666;23.264;2022-12-07T05:37:25;94209.78;;;5.53;100.00
6345;BME280;3205;42.666;23.264;2022-12-07T05:39:51;94202.56;;;5.58;100.00
6345;BME280;3205;42.666;23.264;2022-12-07T05:42:20;94199.63;;;5.60;100.00
6345;BME280;3205;42.666;23.264;2022-12-07T05:44:47;94201.91;;;5.53;100.00
6345;BME280;3205;42.666;23.264;2022-12-07T05:47:14;94199.44;;;5.48;100.00
6345;BME280;3205;42.666;23.264;2022-12-07T05:49:41;94199.13;;;5.41;100.00
6345;BME280;3205;42.666;23.264;2022-12-07T05:52:08;94194.34;;;5.43;100.00
6345;BME280;3205;42.666;23.264;2022-12-07T05:54:35;94186.31;;;5.31;100.00
6345;BME280;3205;42.666;23.264;2022-12-07T05:57:04;94191.41;;;5.36;100.00
6345;BME280;3205;42.666;23.264;2022-12-07T05:59:32;94196.06;;;5.39;100.00
6345;BME280;3205;42.666;23.264;2022-12-07T06:02:00;94192.34;;;5.40;100.00
6345;BME280;3205;42.666;23.264;2022-12-07T06:04:29;94196.22;;;5.51;100.00
6345;BME280;3205;42.666;23.264;2022-12-07T06:06:56;94195.91;;;5.52;100.00
6345;BME280;3205;42.666;23.264;2022-12-07T06:09:26;94197.63;;;5.57;100.00
6345;BME280;3205;42.666;23.264;2022-12-07T06:11:54;94206.72;;;5.51;100.00
6345;BME280;3205;42.666;23.264;2022-12-07T06:14:40;94208.13;;;5.65;100.00
6345;BME280;3205;42.666;23.264;2022-12-07T06:17:10;94210.59;;;5.62;100.00
6345;BME280;3205;42.666;23.264;2022-12-07T06:19:37;94211.53;;;5.74;100.00
6345;BME280;3205;42.666;23.264;2022-12-07T06:22:05;94217.47;;;5.80;100.00
6345;BME280;3205;42.666;23.264;2022-12-07T06:24:33;94215.00;;;5.91;100.00
6345;BME280;3205;42.666;23.264;2022-12-07T06:27:01;94212.97;;;5.88;100.00
6345;BME280;3205;42.666;23.264;2022-12-07T06:29:28;94213.13;;;6.00;100.00
6345;BME280;3205;42.666;23.264;2022-12-07T06:31:56;94218.25;;;6.05;100.00
6345;BME280;3205;42.666;23.264;2022-12-07T06:34:24;94222.75;;;6.13;100.00
6345;BME280;3205;42.666;23.264;2022-12-07T06:36:52;94221.50;;;6.19;100.00
6345;BME280;3205;42.666;23.264;2022-12-07T06:39:22;94223.63;;;6.34;100.00
6345;BME280;3205;42.666;23.264;2022-12-07T06:41:49;94229.84;;;6.38;100.00
6345;BME280;3205;42.666;23.264;2022-12-07T06:44:19;94229.34;;;6.36;100.00
6345;BME280;3205;42.666;23.264;2022-12-07T06:46:48;94233.09;;;6.44;100.00
6345;BME280;3205;42.666;23.264;2022-12-07T06:49:17;94235.69;;;6.52;100.00
6345;BME280;3205;42.666;23.264;2022-12-07T06:51:44;94228.75;;;6.48;100.00
6345;BME280;3205;42.666;23.264;2022-12-07T06:54:12;94240.94;;;6.52;100.00
6345;BME280;3205;42.666;23.264;2022-12-07T06:56:40;94230.59;;;6.56;100.00
6345;BME280;3205;42.666;23.264;2022-12-07T06:59:07;94239.69;;;6.66;100.00
6345;BME280;3205;42.666;23.264;2022-12-07T07:01:35;94241.84;;;6.73;100.00
6345;BME280;3205;42.666;23.264;2022-12-07T07:04:02;94241.22;;;6.76;100.00
6345;BME280;3205;42.666;23.264;2022-12-07T07:06:31;94244.91;;;6.75;100.00
6345;BME280;3205;42.666;23.264;2022-12-07T07:08:58;94236.75;;;6.76;100.00
6345;BME280;3205;42.666;23.264;2022-12-07T07:11:25;94246.81;;;6.66;100.00
6345;BME280;3205;42.666;23.264;2022-12-07T07:13:52;94245.41;;;6.68;100.00
6345;BME280;3205;42.666;23.264;2022-12-07T07:16:19;94246.63;;;6.71;100.00
6345;BME280;3205;42.666;23.264;2022-12-07T07:18:46;94241.53;;;6.66;100.00
6345;BME280;3205;42.666;23.264;2022-12-07T07:21:14;94240.91;;;6.69;100.00
6345;BME280;3205;42.666;23.264;2022-12-07T07:23:42;94242.59;;;6.73;100.00
6345;BME280;3205;42.666;23.264;2022-12-07T07:26:09;94252.34;;;6.73;100.00
6345;BME280;3205;42.666;23.264;2022-12-07T07:28:36;94250.47;;;6.82;100.00
6345;BME280;3205;42.666;23.264;2022-12-07T07:31:04;94254.00;;;6.94;100.00
6345;BME280;3205;42.666;23.264;2022-12-07T07:33:31;94253.50;;;7.09;100.00
6345;BME280;3205;42.666;23.264;2022-12-07T07:35:58;94245.59;;;7.18;100.00
6345;BME280;3205;42.666;23.264;2022-12-07T07:38:25;94249.72;;;7.36;100.00
6345;BME280;3205;42.666;23.264;2022-12-07T07:40:54;94256.34;;;7.70;100.00
6345;BME280;3205;42.666;23.264;2022-12-07T07:43:21;94259.25;;;8.06;100.00
6345;BME280;3205;42.666;23.264;2022-12-07T07:45:48;94264.00;;;8.21;100.00
6345;BME280;3205;42.666;23.264;2022-12-07T07:48:15;94271.31;;;8.15;100.00
6345;BME280;3205;42.666;23.264;2022-12-07T07:50:42;94279.47;;;8.22;100.00
6345;BME280;3205;42.666;23.264;2022-12-07T07:53:08;94282.75;;;8.11;100.00
6345;BME280;3205;42.666;23.264;2022-12-07T07:55:35;94282.06;;;8.02;100.00
6345;BME280;3205;42.666;23.264;2022-12-07T07:58:03;94282.06;;;8.02;100.00
6345;BME280;3205;42.666;23.264;2022-12-07T08:00:30;94268.63;;;7.95;100.00
6345;BME280;3205;42.666;23.264;2022-12-07T08:02:59;94280.50;;;8.01;100.00
6345;BME280;3205;42.666;23.264;2022-12-07T08:05:26;94278.97;;;8.00;100.00
6345;BME280;3205;42.666;23.264;2022-12-07T08:07:53;94280.00;;;8.07;100.00
6345;BME280;3205;42.666;23.264;2022-12-07T08:10:20;94247.44;;;7.92;100.00
6345;BME280;3205;42.666;23.264;2022-12-07T08:12:46;94269.47;;;8.07;100.00
6345;BME280;3205;42.666;23.264;2022-12-07T08:15:31;94270.16;;;8.25;100.00
6345;BME280;3205;42.666;23.264;2022-12-07T08:17:58;94262.38;;;8.28;100.00
6345;BME280;3205;42.666;23.264;2022-12-07T08:20:25;94262.84;;;8.30;100.00
6345;BME280;3205;42.666;23.264;2022-12-07T08:22:52;94258.75;;;8.21;100.00
6345;BME280;3205;42.666;23.264;2022-12-07T08:25:19;94260.72;;;8.24;100.00
6345;BME280;3205;42.666;23.264;2022-12-07T08:27:47;94264.34;;;8.11;100.00
6345;BME280;3205;42.666;23.264;2022-12-07T08:30:14;94267.09;;;7.94;100.00
6345;BME280;3205;42.666;23.264;2022-12-07T08:32:43;94276.34;;;8.00;100.00
6345;BME280;3205;42.666;23.264;2022-12-07T08:35:10;94273.63;;;7.88;100.00
6345;BME280;3205;42.666;23.264;2022-12-07T08:37:38;94269.44;;;7.87;100.00
6345;BME280;3205;42.666;23.264;2022-12-07T08:40:10;94263.53;;;7.90;100.00
6345;BME280;3205;42.666;23.264;2022-12-07T08:42:40;94263.53;;;7.90;100.00
6345;BME280;3205;42.666;23.264;2022-12-07T08:45:09;94257.91;;;8.00;100.00
6345;BME280;3205;42.666;23.264;2022-12-07T08:47:40;94253.88;;;8.03;100.00
6345;BME280;3205;42.666;23.264;2022-12-07T08:50:11;94251.03;;;8.07;100.00
6345;BME280;3205;42.666;23.264;2022-12-07T08:52:40;94254.25;;;8.13;100.00
6345;BME280;3205;42.666;23.264;2022-12-07T08:55:09;94260.53;;;8.29;100.00
6345;BME280;3205;42.666;23.264;2022-12-07T08:57:38;94260.81;;;8.36;100.00
6345;BME280;3205;42.666;23.264;2022-12-07T09:00:06;94245.44;;;8.58;100.00
6345;BME280;3205;42.666;23.264;2022-12-07T09:02:35;94241.38;;;8.61;100.00
6345;BME280;3205;42.666;23.264;2022-12-07T09:05:03;94247.63;;;8.77;100.00
6345;BME280;3205;42.666;23.264;2022-12-07T09:07:32;94238.41;;;8.83;100.00
6345;BME280;3205;42.666;23.264;2022-12-07T09:10:00;94241.56;;;8.76;100.00
6345;BME280;3205;42.666;23.264;2022-12-07T09:12:27;94244.38;;;8.91;100.00
6345;BME280;3205;42.666;23.264;2022-12-07T09:14:54;94239.09;;;8.91;100.00
6345;BME280;3205;42.666;23.264;2022-12-07T09:17:22;94239.75;;;8.88;100.00
6345;BME280;3205;42.666;23.264;2022-12-07T09:19:49;94253.31;;;9.11;100.00
6345;BME280;3205;42.666;23.264;2022-12-07T09:22:16;94256.50;;;9.04;100.00
6345;BME280;3205;42.666;23.264;2022-12-07T09:24:45;94254.22;;;9.15;100.00
6345;BME280;3205;42.666;23.264;2022-12-07T09:27:12;94250.47;;;9.16;100.00
6345;BME280;3205;42.666;23.264;2022-12-07T09:29:39;94247.69;;;9.12;100.00
6345;BME280;3205;42.666;23.264;2022-12-07T09:32:05;94237.09;;;8.88;100.00
6345;BME280;3205;42.666;23.264;2022-12-07T09:34:32;94227.53;;;8.84;100.00
6345;BME280;3205;42.666;23.264;2022-12-07T09:37:01;94229.53;;;8.87;100.00
6345;BME280;3205;42.666;23.264;2022-12-07T09:39:29;94228.81;;;8.98;100.00
6345;BME280;3205;42.666;23.264;2022-12-07T09:41:58;94214.84;;;9.10;100.00
6345;BME280;3205;42.666;23.264;2022-12-07T09:44:27;94223.03;;;8.85;100.00
6345;BME280;3205;42.666;23.264;2022-12-07T09:46:55;94218.16;;;8.75;100.00
6345;BME280;3205;42.666;23.264;2022-12-07T09:49:27;94216.34;;;8.55;100.00
6345;BME280;3205;42.666;23.264;2022-12-07T09:52:02;94213.28;;;8.65;100.00
6345;BME280;3205;42.666;23.264;2022-12-07T09:54:30;94210.88;;;8.60;100.00
6345;BME280;3205;42.666;23.264;2022-12-07T09:56:58;94205.22;;;8.70;100.00
6345;BME280;3205;42.666;23.264;2022-12-07T09:59:27;94213.72;;;8.87;100.00
6345;BME280;3205;42.666;23.264;2022-12-07T10:01:55;94203.69;;;9.37;100.00
6345;BME280;3205;42.666;23.264;2022-12-07T10:04:24;94201.94;;;9.88;100.00
6345;BME280;3205;42.666;23.264;2022-12-07T10:06:52;94207.31;;;9.92;100.00
6345;BME280;3205;42.666;23.264;2022-12-07T10:09:20;94211.19;;;9.82;100.00
6345;BME280;3205;42.666;23.264;2022-12-07T10:12:03;94211.06;;;10.03;100.00
6345;BME280;3205;42.666;23.264;2022-12-07T10:14:33;94207.81;;;10.33;100.00
6345;BME280;3205;42.666;23.264;2022-12-07T10:17:00;94203.91;;;10.54;100.00
6345;BME280;3205;42.666;23.264;2022-12-07T10:19:28;94199.91;;;10.88;100.00
6345;BME280;3205;42.666;23.264;2022-12-07T10:22:01;94194.59;;;11.15;100.00
6345;BME280;3205;42.666;23.264;2022-12-07T10:24:28;94199.44;;;11.13;100.00
6345;BME280;3205;42.666;23.264;2022-12-07T10:26:56;94196.31;;;11.38;100.00
6345;BME280;3205;42.666;23.264;2022-12-07T10:29:29;94202.66;;;11.07;100.00
6345;BME280;3205;42.666;23.264;2022-12-07T10:31:58;94191.41;;;10.28;100.00
6345;BME280;3205;42.666;23.264;2022-12-07T10:34:26;94175.31;;;10.44;100.00
6345;BME280;3205;42.666;23.264;2022-12-07T10:37:14;94169.53;;;10.82;100.00
6345;BME280;3205;42.666;23.264;2022-12-07T10:39:44;94174.88;;;10.70;100.00
6345;BME280;3205;42.666;23.264;2022-12-07T10:42:22;94174.16;;;10.57;100.00
6345;BME280;3205;42.666;23.264;2022-12-07T10:45:07;94169.16;;;10.68;100.00
6345;BME280;3205;42.666;23.264;2022-12-07T10:47:36;94173.00;;;10.43;100.00
6345;BME280;3205;42.666;23.264;2022-12-07T10:50:24;94167.34;;;10.56;100.00
6345;BME280;3205;42.666;23.264;2022-12-07T10:53:06;94157.88;;;10.28;100.00
6345;BME280;3205;42.666;23.264;2022-12-07T10:55:48;94155.91;;;10.52;100.00
6345;BME280;3205;42.666;23.264;2022-12-07T10:58:31;94150.44;;;10.88;100.00
6345;BME280;3205;42.666;23.264;2022-12-07T11:01:12;94146.19;;;10.99;100.00
6345;BME280;3205;42.666;23.264;2022-12-07T11:03:51;94145.94;;;11.04;100.00
6345;BME280;3205;42.666;23.264;2022-12-07T11:06:27;94125.03;;;10.84;100.00
6345;BME280;3205;42.666;23.264;2022-12-07T11:09:28;94141.69;;;10.57;100.00
6345;BME280;3205;42.666;23.264;2022-12-07T11:12:05;94134.97;;;10.59;100.00
6345;BME280;3205;42.666;23.264;2022-12-07T11:14:40;94138.38;;;10.33;100.00
6345;BME280;3205;42.666;23.264;2022-12-07T11:17:17;94128.31;;;10.11;100.00
6345;BME280;3205;42.666;23.264;2022-12-07T11:19:58;94123.59;;;10.16;100.00
6345;BME280;3205;42.666;23.264;2022-12-07T11:22:34;94118.00;;;10.33;100.00
6345;BME280;3205;42.666;23.264;2022-12-07T11:25:16;94123.38;;;10.36;100.00
6345;BME280;3205;42.666;23.264;2022-12-07T11:27:50;94117.84;;;10.41;100.00
6345;BME280;3205;42.666;23.264;2022-12-07T11:30:26;94116.75;;;10.42;100.00
6345;BME280;3205;42.666;23.264;2022-12-07T11:33:06;94102.72;;;10.69;100.00
6345;BME280;3205;42.666;23.264;2022-12-07T11:35:44;94100.09;;;10.69;100.00
6345;BME280;3205;42.666;23.264;2022-12-07T11:38:15;94096.69;;;10.84;100.00
6345;BME280;3205;42.666;23.264;2022-12-07T11:40:45;94101.81;;;10.93;100.00
6345;BME280;3205;42.666;23.264;2022-12-07T11:43:20;94107.44;;;10.91;100.00
6345;BME280;3205;42.666;23.264;2022-12-07T11:45:53;94105.66;;;10.80;100.00
6345;BME280;3205;42.666;23.264;2022-12-07T11:48:32;94104.53;;;10.65;100.00
6345;BME280;3205;42.666;23.264;2022-12-07T11:51:02;94100.41;;;10.52;100.00
6345;BME280;3205;42.666;23.264;2022-12-07T11:53:33;94101.44;;;10.63;100.00
6345;BME280;3205;42.666;23.264;2022-12-07T11:56:09;94085.38;;;10.84;100.00
6345;BME280;3205;42.666;23.264;2022-12-07T11:58:47;94089.03;;;10.95;100.00
6345;BME280;3205;42.666;23.264;2022-12-07T12:01:31;94089.38;;;10.93;100.00
6345;BME280;3205;42.666;23.264;2022-12-07T12:04:07;94076.41;;;11.04;100.00
6345;BME280;3205;42.666;23.264;2022-12-07T12:06:42;94082.34;;;11.16;100.00
6345;BME280;3205;42.666;23.264;2022-12-07T12:09:13;94066.41;;;11.28;100.00
6345;BME280;3205;42.666;23.264;2022-12-07T12:11:59;94061.91;;;11.47;100.00
6345;BME280;3205;42.666;23.264;2022-12-07T12:14:43;94055.44;;;11.45;100.00
6345;BME280;3205;42.666;23.264;2022-12-07T12:17:30;94069.72;;;11.25;100.00
6345;BME280;3205;42.666;23.264;2022-12-07T12:20:06;94058.91;;;11.14;100.00
6345;BME280;3205;42.666;23.264;2022-12-07T12:22:44;94057.53;;;11.05;100.00
6345;BME280;3205;42.666;23.264;2022-12-07T12:25:20;94058.72;;;11.07;100.00
6345;BME280;3205;42.666;23.264;2022-12-07T12:27:49;94044.91;;;10.99;100.00
6345;BME280;3205;42.666;23.264;2022-12-07T12:30:32;94046.72;;;10.95;100.00
6345;BME280;3205;42.666;23.264;2022-12-07T12:33:03;94039.13;;;10.93;100.00
6345;BME280;3205;42.666;23.264;2022-12-07T12:35:35;94033.00;;;11.05;100.00
6345;BME280;3205;42.666;23.264;2022-12-07T12:38:30;94038.09;;;11.13;100.00
6345;BME280;3205;42.666;23.264;2022-12-07T12:41:00;94035.53;;;11.16;100.00
6345;BME280;3205;42.666;23.264;2022-12-07T12:43:51;94030.09;;;11.44;100.00
6345;BME280;3205;42.666;23.264;2022-12-07T12:46:49;94032.38;;;11.61;100.00
6345;BME280;3205;42.666;23.264;2022-12-07T12:52:52;94036.06;;;11.56;100.00
6345;BME280;3205;42.666;23.264;2022-12-07T12:58:33;94035.72;;;11.58;100.00
6345;BME280;3205;42.666;23.264;2022-12-07T13:01:35;94034.91;;;11.73;100.00
6345;BME280;3205;42.666;23.264;2022-12-07T13:04:18;94031.81;;;11.71;100.00
6345;BME280;3205;42.666;23.264;2022-12-07T13:06:49;94045.50;;;11.73;100.00
6345;BME280;3205;42.666;23.264;2022-12-07T13:09:23;94046.59;;;11.72;100.00
6345;BME280;3205;42.666;23.264;2022-12-07T13:11:59;94040.91;;;11.70;100.00
6345;BME280;3205;42.666;23.264;2022-12-07T13:14:53;94043.13;;;11.68;100.00
6345;BME280;3205;42.666;23.264;2022-12-07T13:17:58;94046.47;;;11.49;100.00
6345;BME280;3205;42.666;23.264;2022-12-07T13:20:47;94030.78;;;11.56;100.00
6345;BME280;3205;42.666;23.264;2022-12-07T13:23:18;94039.06;;;11.55;100.00
6345;BME280;3205;42.666;23.264;2022-12-07T13:26:16;94032.66;;;11.56;100.00
6345;BME280;3205;42.666;23.264;2022-12-07T13:28:45;94036.13;;;11.60;100.00
6345;BME280;3205;42.666;23.264;2022-12-07T13:31:23;94031.94;;;11.59;100.00
6345;BME280;3205;42.666;23.264;2022-12-07T13:33:56;94032.47;;;11.49;100.00
6345;BME280;3205;42.666;23.264;2022-12-07T13:36:24;94030.34;;;11.39;100.00
6345;BME280;3205;42.666;23.264;2022-12-07T13:38:54;94034.31;;;11.29;100.00
6345;BME280;3205;42.666;23.264;2022-12-07T13:41:24;94021.69;;;11.23;100.00